sensor_id;sensor_type;location;lat;lon;timestamp;temperature;humidity
10441;DHT22;5268;49.346;9.522;2023-05-23T03:08:02;17.80;99.90
10441;DHT22;5268;49.346;9.522;2023-05-23T03:13:04;17.80;99.90
10441;DHT22;5268;49.346;9.522;2023-05-23T03:18:06;17.70;99.90
10441;DHT22;5268;49.346;9.522;2023-05-23T03:23:10;17.70;99.90
10441;DHT22;5268;49.346;9.522;2023-05-23T03:28:12;17.60;99.90
10441;DHT22;5268;49.346;9.522;2023-05-23T03:33:14;17.60;99.90
10441;DHT22;5268;49.346;9.522;2023-05-23T03:38:18;17.60;99.90
10441;DHT22;5268;49.346;9.522;2023-05-23T03:43:20;17.50;99.90
10441;DHT22;5268;49.346;9.522;2023-05-23T03:48:21;17.50;99.90
10441;DHT22;5268;49.346;9.522;2023-05-23T03:53:25;17.50;99.90
10441;DHT22;5268;49.346;9.522;2023-05-23T03:58:27;17.50;99.90
10441;DHT22;5268;49.346;9.522;2023-05-23T04:03:29;17.50;99.90
10441;DHT22;5268;49.346;9.522;2023-05-23T04:08:34;17.50;99.90
10441;DHT22;5268;49.346;9.522;2023-05-23T04:13:36;17.50;99.90
10441;DHT22;5268;49.346;9.522;2023-05-23T04:18:38;17.50;99.90
10441;DHT22;5268;49.346;9.522;2023-05-23T04:23:41;17.60;99.90
10441;DHT22;5268;49.346;9.522;2023-05-23T04:28:43;17.60;99.90
10441;DHT22;5268;49.346;9.522;2023-05-23T04:33:46;17.60;99.90
10441;DHT22;5268;49.346;9.522;2023-05-23T04:38:49;17.70;99.90
10441;DHT22;5268;49.346;9.522;2023-05-23T04:43:51;17.70;99.90
10441;DHT22;5268;49.346;9.522;2023-05-23T04:48:54;17.80;99.90
10441;DHT22;5268;49.346;9.522;2023-05-23T04:53:57;17.90;99.90
10441;DHT22;5268;49.346;9.522;2023-05-23T04:58:59;17.90;99.90
10441;DHT22;5268;49.346;9.522;2023-05-23T05:04:01;18.00;99.90
10441;DHT22;5268;49.346;9.522;2023-05-23T05:09:04;18.10;99.90
10441;DHT22;5268;49.346;9.522;2023-05-23T05:14:06;18.10;99.90
10441;DHT22;5268;49.346;9.522;2023-05-23T05:19:09;18.20;99.90
10441;DHT22;5268;49.346;9.522;2023-05-23T05:24:12;18.30;99.90
10441;DHT22;5268;49.346;9.522;2023-05-23T05:29:15;18.30;99.90
10441;DHT22;5268;49.346;9.522;2023-05-23T05:34:18;18.40;99.90
10441;DHT22;5268;49.346;9.522;2023-05-23T05:39:22;18.40;99.90
10441;DHT22;5268;49.346;9.522;2023-05-23T05:44:25;18.40;99.90
10441;DHT22;5268;49.346;9.522;2023-05-23T05:49:27;18.50;99.90
10441;DHT22;5268;49.346;9.522;2023-05-23T05:54:31;18.60;99.90
10441;DHT22;5268;49.346;9.522;2023-05-23T05:59:32;18.60;99.90
10441;DHT22;5268;49.346;9.522;2023-05-23T06:04:34;18.70;99.90
10441;DHT22;5268;49.346;9.522;2023-05-23T06:09:38;18.70;99.90
10441;DHT22;5268;49.346;9.522;2023-05-23T06:14:40;18.80;99.90
10441;DHT22;5268;49.346;9.522;2023-05-23T06:19:42;18.90;99.90
10441;DHT22;5268;49.346;9.522;2023-05-23T06:24:45;18.90;99.90
10441;DHT22;5268;49.346;9.522;2023-05-23T06:29:47;19.00;99.90
10441;DHT22;5268;49.346;9.522;2023-05-23T06:34:49;19.10;99.90
10441;DHT22;5268;49.346;9.522;2023-05-23T06:39:52;19.10;99.90
10441;DHT22;5268;49.346;9.522;2023-05-23T06:44:54;19.10;99.90
10441;DHT22;5268;49.346;9.522;2023-05-23T06:49:56;19.00;99.90
10441;DHT22;5268;49.346;9.522;2023-05-23T06:54:59;18.90;99.90
10441;DHT22;5268;49.346;9.522;2023-05-23T07:00:02;18.90;99.90
10441;DHT22;5268;49.346;9.522;2023-05-23T07:05:04;18.90;99.90
10441;DHT22;5268;49.346;9.522;2023-05-23T07:10:09;18.90;99.90
10441;DHT22;5268;49.346;9.522;2023-05-23T07:15:11;18.90;99.90
10441;DHT22;5268;49.346;9.522;2023-05-23T07:20:13;19.30;99.90
10441;DHT22;5268;49.346;9.522;2023-05-23T07:25:16;19.70;99.90
10441;DHT22;5268;49.346;9.522;2023-05-23T07:30:18;20.00;99.90
10441;DHT22;5268;49.346;9.522;2023-05-23T07:35:22;20.10;99.90
10441;DHT22;5268;49.346;9.522;2023-05-23T07:40:27;20.00;99.90
10441;DHT22;5268;49.346;9.522;2023-05-23T07:45:29;19.80;99.90
10441;DHT22;5268;49.346;9.522;2023-05-23T07:50:31;19.60;99.90
10441;DHT22;5268;49.346;9.522;2023-05-23T07:55:34;19.50;99.90
10441;DHT22;5268;49.346;9.522;2023-05-23T08:00:36;19.40;99.90
10441;DHT22;5268;49.346;9.522;2023-05-23T08:05:38;19.40;99.90
10441;DHT22;5268;49.346;9.522;2023-05-23T08:10:41;19.40;99.90
10441;DHT22;5268;49.346;9.522;2023-05-23T08:15:45;19.40;99.90
10441;DHT22;5268;49.346;9.522;2023-05-23T08:20:47;19.50;99.90
10441;DHT22;5268;49.346;9.522;2023-05-23T08:25:51;19.50;99.90
10441;DHT22;5268;49.346;9.522;2023-05-23T08:30:53;19.60;99.90
10441;DHT22;5268;49.346;9.522;2023-05-23T08:35:56;19.60;99.90
10441;DHT22;5268;49.346;9.522;2023-05-23T08:41:00;19.60;99.90
10441;DHT22;5268;49.346;9.522;2023-05-23T08:46:03;19.50;99.90
10441;DHT22;5268;49.346;9.522;2023-05-23T08:51:06;19.50;99.90
10441;DHT22;5268;49.346;9.522;2023-05-23T08:56:11;19.50;99.90
10441;DHT22;5268;49.346;9.522;2023-05-23T09:01:14;19.60;99.90
10441;DHT22;5268;49.346;9.522;2023-05-23T09:06:20;19.60;99.90
10441;DHT22;5268;49.346;9.522;2023-05-23T09:11:23;19.50;99.90
10441;DHT22;5268;49.346;9.522;2023-05-23T09:16:31;19.40;99.90
10441;DHT22;5268;49.346;9.522;2023-05-23T09:21:33;19.40;99.90
10441;DHT22;5268;49.346;9.522;2023-05-23T09:26:37;19.40;99.90
10441;DHT22;5268;49.346;9.522;2023-05-23T09:31:39;19.50;99.90
10441;DHT22;5268;49.346;9.522;2023-05-23T09:36:41;19.80;99.90
10441;DHT22;5268;49.346;9.522;2023-05-23T09:41:47;20.30;99.90
10441;DHT22;5268;49.346;9.522;2023-05-23T09:46:50;20.60;99.90
10441;DHT22;5268;49.346;9.522;2023-05-23T09:51:56;20.80;99.90
10441;DHT22;5268;49.346;9.522;2023-05-23T09:57:01;21.10;99.90
10441;DHT22;5268;49.346;9.522;2023-05-23T10:02:05;21.50;99.90
10441;DHT22;5268;49.346;9.522;2023-05-23T10:07:12;21.50;99.90
10441;DHT22;5268;49.346;9.522;2023-05-23T10:12:38;21.50;99.90
10441;DHT22;5268;49.346;9.522;2023-05-23T10:18:01;21.30;99.90
10441;DHT22;5268;49.346;9.522;2023-05-23T10:23:04;21.20;99.90
10441;DHT22;5268;49.346;9.522;2023-05-23T10:28:08;21.30;99.90
10441;DHT22;5268;49.346;9.522;2023-05-23T10:33:10;21.40;99.90
10441;DHT22;5268;49.346;9.522;2023-05-23T10:38:23;21.30;99.90
10441;DHT22;5268;49.346;9.522;2023-05-23T10:43:35;21.30;99.90
10441;DHT22;5268;49.346;9.522;2023-05-23T10:48:42;21.30;99.90
10441;DHT22;5268;49.346;9.522;2023-05-23T10:53:45;21.40;99.90
10441;DHT22;5268;49.346;9.522;2023-05-23T10:58:51;21.50;99.90
10441;DHT22;5268;49.346;9.522;2023-05-23T11:03:54;21.50;99.90
10441;DHT22;5268;49.346;9.522;2023-05-23T11:09:02;21.60;99.90
10441;DHT22;5268;49.346;9.522;2023-05-23T11:14:05;21.70;99.90
10441;DHT22;5268;49.346;9.522;2023-05-23T11:19:23;21.80;99.90
10441;DHT22;5268;49.346;9.522;2023-05-23T11:24:49;21.70;99.90
10441;DHT22;5268;49.346;9.522;2023-05-23T11:29:58;21.60;99.90
10441;DHT22;5268;49.346;9.522;2023-05-23T11:35:01;21.40;99.90
10441;DHT22;5268;49.346;9.522;2023-05-23T11:40:25;21.20;99.90
10441;DHT22;5268;49.346;9.522;2023-05-23T11:45:29;21.10;99.90
10441;DHT22;5268;49.346;9.522;2023-05-23T11:50:32;21.10;99.90
10441;DHT22;5268;49.346;9.522;2023-05-23T11:55:34;21.20;99.90
10441;DHT22;5268;49.346;9.522;2023-05-23T12:00:43;21.30;99.90
10441;DHT22;5268;49.346;9.522;2023-05-23T12:05:45;21.50;99.90
10441;DHT22;5268;49.346;9.522;2023-05-23T12:10:51;21.60;99.90
10441;DHT22;5268;49.346;9.522;2023-05-23T12:15:55;21.60;99.90
10441;DHT22;5268;49.346;9.522;2023-05-23T12:20:59;21.60;99.90
10441;DHT22;5268;49.346;9.522;2023-05-23T12:26:04;21.60;99.90
10441;DHT22;5268;49.346;9.522;2023-05-23T12:31:10;21.60;99.90
10441;DHT22;5268;49.346;9.522;2023-05-23T12:36:13;21.60;99.90
10441;DHT22;5268;49.346;9.522;2023-05-23T12:41:16;21.60;99.90
10441;DHT22;5268;49.346;9.522;2023-05-23T12:46:21;21.70;99.90
10441;DHT22;5268;49.346;9.522;2023-05-23T12:51:23;21.80;99.90
10441;DHT22;5268;49.346;9.522;2023-05-23T12:56:25;21.90;99.90
10441;DHT22;5268;49.346;9.522;2023-05-23T13:01:29;22.00;99.90
10441;DHT22;5268;49.346;9.522;2023-05-23T13:06:30;22.00;99.90
10441;DHT22;5268;49.346;9.522;2023-05-23T13:11:32;21.90;99.90
10441;DHT22;5268;49.346;9.522;2023-05-23T13:16:36;21.90;99.90
10441;DHT22;5268;49.346;9.522;2023-05-23T13:21:38;21.80;99.90
10441;DHT22;5268;49.346;9.522;2023-05-23T13:26:40;21.80;99.90
10441;DHT22;5268;49.346;9.522;2023-05-23T13:31:44;21.90;99.90
10441;DHT22;5268;49.346;9.522;2023-05-23T13:36:46;21.90;99.90
10441;DHT22;5268;49.346;9.522;2023-05-23T13:41:48;22.00;99.90
10441;DHT22;5268;49.346;9.522;2023-05-23T13:46:51;22.20;99.90
10441;DHT22;5268;49.346;9.522;2023-05-23T13:51:53;22.40;99.90
10441;DHT22;5268;49.346;9.522;2023-05-23T13:56:55;22.50;99.90
10441;DHT22;5268;49.346;9.522;2023-05-23T14:01:59;22.50;99.90
10441;DHT22;5268;49.346;9.522;2023-05-23T14:07:01;22.50;99.90
10441;DHT22;5268;49.346;9.522;2023-05-23T14:12:04;22.50;99.90
10441;DHT22;5268;49.346;9.522;2023-05-23T14:17:08;22.40;99.90
10441;DHT22;5268;49.346;9.522;2023-05-23T14:22:14;22.30;99.90
10441;DHT22;5268;49.346;9.522;2023-05-23T14:27:16;22.20;99.90
10441;DHT22;5268;49.346;9.522;2023-05-23T14:32:20;22.20;99.90
10441;DHT22;5268;49.346;9.522;2023-05-23T14:37:22;22.30;99.90
10441;DHT22;5268;49.346;9.522;2023-05-23T14:42:24;22.50;99.90
10441;DHT22;5268;49.346;9.522;2023-05-23T14:47:28;22.50;99.90
10441;DHT22;5268;49.346;9.522;2023-05-23T14:52:30;22.50;99.90
10441;DHT22;5268;49.346;9.522;2023-05-23T14:57:32;22.30;99.90
10441;DHT22;5268;49.346;9.522;2023-05-23T15:02:36;22.30;99.90
10441;DHT22;5268;49.346;9.522;2023-05-23T15:07:38;22.20;99.90
10441;DHT22;5268;49.346;9.522;2023-05-23T15:12:40;22.20;99.90
10441;DHT22;5268;49.346;9.522;2023-05-23T15:17:43;22.10;99.90
10441;DHT22;5268;49.346;9.522;2023-05-23T15:22:45;21.90;99.90
10441;DHT22;5268;49.346;9.522;2023-05-23T15:27:47;21.80;99.90
10441;DHT22;5268;49.346;9.522;2023-05-23T15:32:50;21.80;99.90
10441;DHT22;5268;49.346;9.522;2023-05-23T15:37:52;21.80;99.90
10441;DHT22;5268;49.346;9.522;2023-05-23T15:42:54;21.70;99.90
10441;DHT22;5268;49.346;9.522;2023-05-23T15:47:57;21.70;99.90
10441;DHT22;5268;49.346;9.522;2023-05-23T15:52:59;21.70;99.90
10441;DHT22;5268;49.346;9.522;2023-05-23T15:58:01;21.60;99.90
10441;DHT22;5268;49.346;9.522;2023-05-23T16:03:04;21.70;99.90
10441;DHT22;5268;49.346;9.522;2023-05-23T16:08:06;21.50;99.90
10441;DHT22;5268;49.346;9.522;2023-05-23T16:13:08;21.40;99.90
10441;DHT22;5268;49.346;9.522;2023-05-23T16:18:13;21.40;99.90
10441;DHT22;5268;49.346;9.522;2023-05-23T16:23:15;21.20;99.90
10441;DHT22;5268;49.346;9.522;2023-05-23T16:28:19;21.20;99.90
10441;DHT22;5268;49.346;9.522;2023-05-23T16:33:23;21.20;99.90
10441;DHT22;5268;49.346;9.522;2023-05-23T16:38:25;21.20;99.90
10441;DHT22;5268;49.346;9.522;2023-05-23T16:43:27;21.20;99.90
10441;DHT22;5268;49.346;9.522;2023-05-23T16:48:30;21.10;99.90
10441;DHT22;5268;49.346;9.522;2023-05-23T16:53:32;21.00;99.90
10441;DHT22;5268;49.346;9.522;2023-05-23T16:58:34;20.90;99.90
10441;DHT22;5268;49.346;9.522;2023-05-23T17:03:39;20.80;99.90
10441;DHT22;5268;49.346;9.522;2023-05-23T17:08:41;20.60;99.90
10441;DHT22;5268;49.346;9.522;2023-05-23T17:13:43;20.50;99.90
10441;DHT22;5268;49.346;9.522;2023-05-23T17:18:46;20.40;99.90
10441;DHT22;5268;49.346;9.522;2023-05-23T17:23:48;20.30;99.90
10441;DHT22;5268;49.346;9.522;2023-05-23T17:28:50;20.30;99.90
10441;DHT22;5268;49.346;9.522;2023-05-23T17:33:54;20.20;99.90
10441;DHT22;5268;49.346;9.522;2023-05-23T17:38:56;20.20;99.90
10441;DHT22;5268;49.346;9.522;2023-05-23T17:43:58;20.00;99.90
10441;DHT22;5268;49.346;9.522;2023-05-23T17:49:02;19.90;99.90
10441;DHT22;5268;49.346;9.522;2023-05-23T17:54:04;19.80;99.90
10441;DHT22;5268;49.346;9.522;2023-05-23T17:59:06;19.70;99.90
10441;DHT22;5268;49.346;9.522;2023-05-23T18:04:10;19.70;99.90
10441;DHT22;5268;49.346;9.522;2023-05-23T18:09:12;19.60;99.90
10441;DHT22;5268;49.346;9.522;2023-05-23T18:14:14;19.50;99.90
10441;DHT22;5268;49.346;9.522;2023-05-23T18:19:17;19.50;99.90
10441;DHT22;5268;49.346;9.522;2023-05-23T18:24:19;19.40;99.90
10441;DHT22;5268;49.346;9.522;2023-05-23T18:29:21;19.30;99.90
10441;DHT22;5268;49.346;9.522;2023-05-23T18:34:24;19.20;99.90
10441;DHT22;5268;49.346;9.522;2023-05-23T18:39:26;19.00;99.90
10441;DHT22;5268;49.346;9.522;2023-05-23T18:44:28;18.90;99.90
10441;DHT22;5268;49.346;9.522;2023-05-23T18:49:32;18.90;99.90
10441;DHT22;5268;49.346;9.522;2023-05-23T18:54:33;18.80;99.90
10441;DHT22;5268;49.346;9.522;2023-05-23T18:59:35;18.70;99.90
10441;DHT22;5268;49.346;9.522;2023-05-23T19:04:39;18.50;99.90
10441;DHT22;5268;49.346;9.522;2023-05-23T19:09:41;18.40;99.90
10441;DHT22;5268;49.346;9.522;2023-05-23T19:14:43;18.30;99.90
10441;DHT22;5268;49.346;9.522;2023-05-23T19:19:46;18.20;99.90
10441;DHT22;5268;49.346;9.522;2023-05-23T19:24:48;18.10;99.90
10441;DHT22;5268;49.346;9.522;2023-05-23T19:29:50;18.10;99.90
10441;DHT22;5268;49.346;9.522;2023-05-23T19:34:54;17.90;99.90
10441;DHT22;5268;49.346;9.522;2023-05-23T19:39:56;17.90;99.90
10441;DHT22;5268;49.346;9.522;2023-05-23T19:44:58;17.80;99.90
10441;DHT22;5268;49.346;9.522;2023-05-23T19:50:01;17.80;99.90
10441;DHT22;5268;49.346;9.522;2023-05-23T19:55:04;17.80;99.90
10441;DHT22;5268;49.346;9.522;2023-05-23T20:00:08;17.80;99.90
10441;DHT22;5268;49.346;9.522;2023-05-23T20:05:12;17.70;99.90
10441;DHT22;5268;49.346;9.522;2023-05-23T20:10:14;17.70;99.90
10441;DHT22;5268;49.346;9.522;2023-05-23T20:15:15;17.60;99.90
10441;DHT22;5268;49.346;9.522;2023-05-23T20:20:19;17.50;99.90
10441;DHT22;5268;49.346;9.522;2023-05-23T20:25:21;17.40;99.90
10441;DHT22;5268;49.346;9.522;2023-05-23T20:30:23;17.20;99.90
10441;DHT22;5268;49.346;9.522;2023-05-23T20:35:27;17.00;99.90
10441;DHT22;5268;49.346;9.522;2023-05-23T20:40:29;16.90;99.90
10441;DHT22;5268;49.346;9.522;2023-05-23T20:45:33;16.80;99.90
10441;DHT22;5268;49.346;9.522;2023-05-23T20:50:36;16.80;99.90
10441;DHT22;5268;49.346;9.522;2023-05-23T20:55:38;16.70;99.90
10441;DHT22;5268;49.346;9.522;2023-05-23T21:00:40;16.70;99.90
10441;DHT22;5268;49.346;9.522;2023-05-23T21:05:43;16.70;99.90
10441;DHT22;5268;49.346;9.522;2023-05-23T21:10:45;16.60;99.90
10441;DHT22;5268;49.346;9.522;2023-05-23T21:15:47;16.60;99.90
10441;DHT22;5268;49.346;9.522;2023-05-23T21:20:51;16.50;99.90
10441;DHT22;5268;49.346;9.522;2023-05-23T21:25:53;16.50;99.90
10441;DHT22;5268;49.346;9.522;2023-05-23T21:30:55;16.40;99.90
10441;DHT22;5268;49.346;9.522;2023-05-23T21:35:58;16.40;99.90
10441;DHT22;5268;49.346;9.522;2023-05-23T21:41:00;16.30;99.90
10441;DHT22;5268;49.346;9.522;2023-05-23T21:46:02;16.20;99.90
10441;DHT22;5268;49.346;9.522;2023-05-23T21:51:06;16.00;99.90
